Saint Joseph, Iowa
Current Conditions -  °F | °C
As of 5:55 AM on Friday 19 Dec 2014 (Local Time) from KAXA Reporting Station
Haze Haze  
Wind Chill: -7°   Ceiling: 700
Heat Index: -3°   Visibility: 5mi
Dew Point: -3°   Wind: 7mph
Humidity: 100%   Direction: 170°S
Pressure: 30.22"   Gusts: NA
Location:  42.8572°N, 94.2676°W
Report Text: KAXA 191155Z AUTO 17006KT 5SM BR OVC007 M03/M03 A3022 RMK AO2
Loading
Personal Weather Stations






























Interactive Weather Map New forecast layout! Learn more

10-Day Weather Forecast

Advertisements
Track Severe Weather on mobile